createdAt,value
2019-05-29T00:02:15.051Z,5.87
2019-05-29T00:04:45.375Z,6.80
2019-05-29T00:07:15.803Z,6.03
2019-05-29T00:09:45.720Z,6.83
2019-05-29T00:12:19.610Z,6.55
2019-05-29T00:14:47.185Z,6.35
2019-05-29T00:17:17.101Z,7.95
2019-05-29T00:19:47.014Z,7.80
2019-05-29T00:22:17.032Z,7.78
2019-05-29T00:24:47.049Z,6.20
2019-05-29T00:27:18.294Z,6.90
2019-05-29T00:29:48.211Z,7.22
2019-05-29T00:32:18.038Z,8.13
2019-05-29T00:34:47.937Z,6.65
2019-05-29T00:37:17.954Z,6.47
2019-05-29T00:39:47.870Z,5.83
2019-05-29T00:42:18.812Z,6.20
2019-05-29T00:44:49.030Z,6.83
2019-05-29T00:47:19.366Z,7.33
2019-05-29T00:49:49.268Z,7.45
2019-05-29T00:52:19.185Z,7.35
2019-05-29T00:54:49.098Z,6.65
2019-05-29T00:57:19.102Z,6.12
2019-05-29T00:59:49.139Z,6.50
2019-05-29T01:02:19.797Z,6.12
2019-05-29T01:04:49.789Z,6.05
2019-05-29T01:07:20.528Z,6.33
2019-05-29T01:09:50.849Z,5.75
2019-05-29T01:12:21.316Z,6.62
2019-05-29T01:14:51.388Z,6.20
2019-05-29T01:17:21.875Z,5.75
2019-05-29T01:19:51.753Z,5.33
2019-05-29T01:22:22.404Z,5.75
2019-05-29T01:24:53.815Z,5.40
2019-05-29T01:27:23.728Z,5.33
2019-05-29T01:29:53.648Z,5.50
2019-05-29T01:32:23.967Z,4.80
2019-05-29T01:34:53.933Z,4.70
2019-05-29T01:37:24.349Z,4.58
2019-05-29T01:39:55.556Z,3.52
2019-05-29T01:42:27.642Z,4.75
2019-05-29T01:45:07.264Z,4.83
2019-05-29T01:47:29.483Z,3.85
2019-05-29T01:49:59.412Z,3.65
2019-05-29T01:52:29.837Z,3.45
2019-05-29T01:54:59.739Z,3.80
2019-05-29T01:57:29.668Z,3.58
2019-05-29T01:59:59.582Z,3.15
2019-05-29T02:02:30.010Z,3.02
2019-05-29T02:04:59.925Z,3.62
2019-05-29T02:07:29.840Z,2.58
2019-05-29T02:09:59.762Z,3.02
2019-05-29T02:12:29.590Z,2.50
2019-05-29T02:14:59.892Z,1.87
2019-05-29T02:17:29.798Z,2.45
2019-05-29T02:19:59.711Z,2.52
2019-05-29T02:22:29.635Z,2.20
2019-05-29T02:24:59.551Z,2.10
2019-05-29T02:27:29.475Z,2.33
2019-05-29T02:29:59.789Z,1.98
2019-05-29T02:32:29.705Z,2.37
2019-05-29T02:34:59.624Z,1.90
2019-05-29T02:37:29.537Z,2.70
2019-05-29T02:39:59.452Z,2.22
2019-05-29T02:42:29.316Z,2.00
2019-05-29T02:44:59.113Z,2.62
2019-05-29T02:47:30.273Z,2.12
2019-05-29T02:50:00.338Z,1.67
2019-05-29T02:52:30.840Z,1.80
2019-05-29T02:55:02.097Z,2.08
2019-05-29T02:57:32.031Z,2.20
2019-05-29T03:00:02.359Z,2.42
2019-05-29T03:02:32.719Z,2.77
2019-05-29T03:05:02.704Z,1.80
2019-05-29T03:07:33.027Z,2.10
2019-05-29T03:10:03.614Z,2.25
2019-05-29T03:12:33.795Z,2.08
2019-05-29T03:15:05.751Z,1.95
2019-05-29T03:17:35.753Z,2.40
2019-05-29T03:20:07.042Z,2.27
2019-05-29T03:22:37.015Z,2.42
2019-05-29T03:25:07.645Z,2.17
2019-05-29T03:27:38.653Z,2.08
2019-05-29T03:30:09.019Z,1.95
2019-05-29T03:32:46.773Z,1.80
2019-05-29T03:35:10.479Z,1.42
2019-05-29T03:37:40.392Z,1.60
2019-05-29T03:40:10.307Z,1.15
2019-05-29T03:42:40.224Z,1.20
2019-05-29T03:45:10.146Z,1.55
2019-05-29T03:47:40.043Z,0.72
2019-05-29T03:50:09.971Z,1.00
2019-05-29T03:52:39.885Z,1.00
2019-05-29T03:55:09.797Z,0.80
2019-05-29T03:57:39.812Z,1.00
2019-05-29T04:00:10.651Z,1.40
2019-05-29T04:02:40.553Z,0.80
2019-05-29T04:05:11.196Z,0.75
2019-05-29T04:07:41.420Z,0.95
2019-05-29T04:10:11.347Z,0.90
2019-05-29T04:12:41.252Z,0.60
2019-05-29T04:15:11.375Z,0.60
2019-05-29T04:20:10.278Z,0.70
2019-05-29T04:32:42.937Z,0.93
2019-05-29T04:35:12.751Z,0.50
2019-05-29T04:37:42.634Z,1.40
2019-05-29T04:40:12.876Z,1.00
2019-05-29T05:05:07.616Z,0.70
2019-05-29T05:07:39.661Z,0.60
2019-05-29T05:10:10.211Z,0.62
2019-05-29T05:12:40.397Z,0.75
2019-05-29T05:17:40.161Z,0.50
2019-05-29T05:20:10.279Z,0.50
2019-05-29T05:47:52.969Z,0.60
2019-05-29T06:00:11.477Z,1.60
2019-05-29T06:02:42.118Z,1.02
2019-05-29T06:07:42.514Z,0.98
2019-05-29T06:10:12.678Z,1.07
2019-05-29T06:12:42.952Z,0.72
2019-05-29T06:15:13.015Z,0.50
2019-05-29T06:18:00.571Z,0.40
2019-05-29T06:20:14.484Z,0.40
2019-05-29T06:22:44.385Z,0.23
2019-05-29T06:25:14.312Z,0.30
2019-05-29T06:27:44.540Z,0.70
2019-05-29T06:30:14.367Z,0.30
2019-05-29T06:32:44.202Z,0.30
2019-05-29T06:35:15.804Z,0.47
2019-05-29T06:37:45.642Z,0.40
2019-05-29T06:40:18.798Z,0.33
2019-05-29T06:42:48.962Z,0.20
2019-05-29T06:45:22.090Z,0.20
2019-05-29T06:47:51.931Z,0.33
2019-05-29T06:50:22.191Z,0.25
2019-05-29T06:52:52.039Z,0.23
2019-05-29T06:55:21.876Z,0.10
2019-05-29T06:57:51.743Z,0.35
2019-05-29T07:00:34.894Z,0.17
2019-05-29T07:02:53.179Z,0.50
2019-05-29T07:05:23.027Z,0.40
2019-05-29T07:07:52.882Z,0.45
2019-05-29T07:10:23.042Z,0.40
2019-05-29T07:12:52.899Z,0.37
2019-05-29T07:15:23.090Z,0.30
2019-05-29T07:17:53.302Z,0.37
2019-05-29T07:20:23.217Z,0.42
2019-05-29T07:22:53.070Z,0.20
2019-05-29T07:25:23.983Z,0.20
2019-05-29T07:27:54.295Z,0.28
2019-05-29T07:30:24.979Z,0.30
2019-05-29T07:32:58.431Z,0.30
2019-05-29T07:35:26.210Z,0.30
2019-05-29T07:40:25.055Z,0.60
2019-05-29T07:55:23.733Z,0.95
2019-05-29T07:57:53.607Z,0.75
2019-05-29T08:00:34.773Z,0.78
2019-05-29T08:02:55.046Z,0.80
2019-05-29T08:05:24.883Z,0.60
2019-05-29T08:07:54.731Z,0.40
2019-05-29T08:10:24.561Z,0.47
2019-05-29T08:12:55.964Z,1.22
2019-05-29T08:15:25.987Z,0.72
2019-05-29T08:17:55.839Z,0.65
2019-05-29T08:20:25.677Z,0.70
2019-05-29T08:22:55.519Z,0.57
2019-05-29T08:25:25.720Z,1.55
2019-05-29T08:27:56.035Z,2.70
2019-05-29T08:32:55.262Z,0.40
2019-05-29T08:35:25.103Z,0.30
2019-05-29T08:37:55.281Z,0.57
2019-05-29T08:40:25.127Z,0.10
2019-05-29T08:42:55.318Z,0.72
2019-05-29T08:45:25.180Z,0.20
2019-05-29T08:47:55.095Z,0.10
2019-05-29T08:50:24.973Z,0.45
2019-05-29T08:52:54.815Z,0.40
2019-05-29T08:55:24.666Z,0.30
2019-05-29T08:57:54.505Z,0.30
2019-05-29T09:00:24.412Z,0.30
2019-05-29T09:02:54.207Z,0.30
2019-05-29T09:05:24.082Z,0.40
2019-05-29T09:07:54.461Z,0.35
2019-05-29T09:10:24.816Z,0.40
2019-05-29T09:13:03.898Z,0.95
2019-05-29T09:15:26.615Z,0.23
2019-05-29T09:17:56.460Z,0.70
2019-05-29T09:20:43.561Z,0.13
2019-05-29T09:22:57.776Z,0.30
2019-05-29T09:25:27.615Z,0.53
2019-05-29T09:27:57.540Z,0.20
2019-05-29T09:30:27.446Z,0.08
2019-05-29T09:32:57.297Z,0.30
2019-05-29T09:35:27.532Z,0.10
2019-05-29T09:37:57.375Z,0.70
2019-05-29T09:40:27.289Z,0.42
2019-05-29T09:42:57.131Z,1.00
2019-05-29T09:45:26.991Z,0.40
2019-05-29T09:47:56.826Z,0.30
2019-05-29T09:50:27.614Z,0.88
2019-05-29T09:53:00.020Z,0.35
2019-05-29T09:55:29.183Z,0.78
2019-05-29T09:58:00.706Z,0.45
2019-05-29T10:00:31.809Z,0.35
2019-05-29T10:03:02.742Z,0.60
2019-05-29T10:05:33.454Z,1.05
2019-05-29T10:08:04.423Z,0.55
2019-05-29T10:10:34.318Z,0.75
2019-05-29T10:13:04.521Z,0.68
2019-05-29T10:15:34.410Z,0.50
2019-05-29T10:18:08.518Z,0.40
2019-05-29T10:20:35.731Z,0.35
2019-05-29T10:23:05.561Z,0.35
2019-05-29T10:25:35.421Z,0.70
2019-05-29T10:28:06.051Z,0.40
2019-05-29T10:30:36.511Z,0.85
2019-05-29T10:33:06.355Z,0.70
2019-05-29T10:35:36.203Z,0.75
2019-05-29T10:38:06.050Z,0.70
2019-05-29T10:40:35.894Z,0.85
2019-05-29T10:43:05.812Z,0.93
2019-05-29T10:45:35.641Z,0.70
2019-05-29T10:48:05.963Z,0.75
2019-05-29T10:50:36.135Z,0.80
2019-05-29T10:53:05.979Z,0.70
2019-05-29T10:55:35.822Z,0.93
2019-05-29T10:58:05.662Z,1.05
2019-05-29T11:00:38.656Z,1.25
2019-05-29T11:03:06.970Z,1.52
2019-05-29T11:05:36.818Z,1.10
2019-05-29T11:08:06.655Z,0.80
2019-05-29T11:10:36.496Z,1.02
2019-05-29T11:13:06.346Z,0.93
2019-05-29T11:15:36.191Z,0.72
2019-05-29T11:18:06.035Z,1.10
2019-05-29T11:20:36.229Z,0.72
2019-05-29T11:23:06.467Z,1.02
2019-05-29T11:25:36.683Z,0.75
2019-05-29T11:28:06.530Z,0.80
2019-05-29T11:30:36.387Z,0.55
2019-05-29T11:33:06.239Z,0.75
2019-05-29T11:35:36.444Z,0.68
2019-05-29T11:38:06.288Z,1.05
2019-05-29T11:40:36.341Z,0.82
2019-05-29T11:43:06.353Z,1.02
2019-05-29T11:45:36.208Z,1.12
2019-05-29T11:48:06.046Z,0.80
2019-05-29T11:50:35.898Z,0.70
2019-05-29T11:53:05.757Z,0.88
2019-05-29T11:55:35.970Z,0.88
2019-05-29T11:58:05.814Z,1.00
2019-05-29T12:00:35.658Z,0.60
2019-05-29T12:03:06.534Z,0.60
2019-05-29T12:05:36.387Z,0.95
2019-05-29T12:08:06.222Z,1.12
2019-05-29T12:10:37.038Z,0.93
2019-05-29T12:13:06.879Z,1.05
2019-05-29T12:15:36.794Z,0.90
2019-05-29T12:18:23.170Z,0.62
2019-05-29T12:20:38.612Z,2.15
2019-05-29T12:23:24.358Z,0.75
2019-05-29T12:25:40.286Z,1.22
2019-05-29T12:28:10.500Z,1.10
2019-05-29T12:30:40.405Z,1.30
2019-05-29T12:33:10.242Z,0.85
2019-05-29T12:35:40.214Z,0.40
2019-05-29T12:38:10.054Z,0.50
2019-05-29T12:40:40.273Z,0.53
2019-05-29T12:43:26.013Z,0.60
2019-05-29T12:45:41.616Z,1.10
2019-05-29T12:48:13.865Z,0.98
2019-05-29T12:50:42.926Z,1.12
2019-05-29T12:53:29.000Z,0.68
2019-05-29T12:55:44.243Z,0.60
2019-05-29T12:58:14.091Z,0.62
2019-05-29T13:00:43.944Z,0.40
2019-05-29T13:03:14.124Z,0.57
2019-05-29T13:05:43.949Z,0.60
2019-05-29T13:08:13.846Z,0.60
2019-05-29T13:10:43.677Z,0.40
2019-05-29T13:13:13.526Z,0.40
2019-05-29T13:15:43.385Z,0.50
2019-05-29T13:18:13.598Z,0.47
2019-05-29T13:20:43.827Z,0.57
2019-05-29T13:23:13.681Z,0.40
2019-05-29T13:25:43.518Z,0.60
2019-05-29T13:28:13.362Z,0.80
2019-05-29T13:30:43.203Z,0.60
2019-05-29T13:33:13.051Z,0.57
2019-05-29T13:35:42.883Z,1.02
2019-05-29T13:38:12.713Z,0.40
2019-05-29T13:40:42.757Z,0.57
2019-05-29T13:43:15.522Z,0.45
2019-05-29T13:45:44.501Z,0.60
2019-05-29T13:48:14.360Z,0.80
2019-05-29T13:50:44.199Z,0.62
2019-05-29T13:53:14.061Z,0.70
2019-05-29T13:55:43.913Z,0.50
2019-05-29T13:58:13.762Z,0.85
2019-05-29T14:00:43.602Z,0.90
2019-05-29T14:03:13.489Z,0.70
2019-05-29T14:05:43.350Z,0.70
2019-05-29T14:08:13.263Z,0.70
2019-05-29T14:10:43.108Z,0.93
2019-05-29T14:13:12.947Z,0.80
2019-05-29T14:16:19.428Z,0.82
2019-05-29T14:18:49.347Z,0.60
2019-05-29T14:21:19.242Z,0.75
2019-05-29T14:23:49.162Z,0.85
2019-05-29T14:26:19.031Z,1.20
2019-05-29T14:28:48.906Z,0.55
2019-05-29T14:31:18.795Z,0.82
2019-05-29T14:33:49.035Z,0.40
2019-05-29T14:36:19.260Z,0.45
2019-05-29T14:38:49.102Z,0.45
2019-05-29T14:41:18.964Z,0.60
2019-05-29T14:43:48.801Z,1.35
2019-05-29T14:46:19.632Z,0.90
2019-05-29T14:48:49.473Z,0.50
2019-05-29T14:51:19.669Z,0.70
2019-05-29T14:53:49.519Z,1.12
2019-05-29T14:56:19.891Z,0.62
2019-05-29T14:58:50.131Z,0.40
2019-05-29T15:01:19.991Z,0.42
2019-05-29T15:03:49.840Z,0.40
2019-05-29T15:06:19.720Z,0.50
2019-05-29T15:08:49.556Z,0.40
2019-05-29T15:11:19.478Z,0.60
2019-05-29T15:13:49.319Z,0.78
2019-05-29T15:16:19.166Z,0.78
2019-05-29T15:18:49.015Z,0.75
2019-05-29T15:21:18.867Z,1.75
2019-05-29T15:23:48.711Z,0.70
2019-05-29T15:26:18.555Z,0.90
2019-05-29T15:28:48.402Z,0.50
2019-05-29T15:31:18.256Z,0.50
2019-05-29T15:33:48.428Z,0.53
2019-05-29T15:36:18.285Z,0.50
2019-05-29T15:38:48.173Z,0.50
2019-05-29T15:41:18.029Z,0.70
2019-05-29T15:43:49.417Z,0.40
2019-05-29T15:46:19.512Z,0.50
2019-05-29T15:48:49.350Z,0.80
2019-05-29T15:51:21.782Z,1.37
2019-05-29T15:53:50.660Z,1.22
2019-05-29T15:56:27.490Z,0.70
2019-05-29T15:58:52.257Z,0.75
2019-05-29T16:01:22.103Z,0.90
2019-05-29T16:03:51.958Z,1.02
2019-05-29T16:06:21.802Z,0.68
2019-05-29T16:08:51.653Z,0.62
2019-05-29T16:11:25.132Z,0.55
2019-05-29T16:13:52.958Z,0.70
2019-05-29T16:16:22.561Z,0.93
2019-05-29T16:18:52.630Z,0.80
2019-05-29T16:21:23.186Z,0.80
2019-05-29T16:23:53.134Z,0.88
2019-05-29T16:26:23.305Z,1.10
2019-05-29T16:28:53.146Z,0.72
2019-05-29T16:31:23.102Z,0.82
2019-05-29T16:33:52.982Z,1.02
2019-05-29T16:36:22.806Z,1.07
2019-05-29T16:38:52.992Z,0.80
2019-05-29T16:41:22.826Z,0.80
2019-05-29T16:43:52.663Z,1.22
2019-05-29T16:46:24.433Z,0.85
2019-05-29T16:48:53.991Z,0.80
2019-05-29T16:51:23.826Z,0.70
2019-05-29T16:53:53.674Z,0.55
2019-05-29T16:56:23.518Z,0.80
2019-05-29T16:58:53.366Z,0.80
2019-05-29T17:01:23.986Z,0.98
2019-05-29T17:03:54.370Z,1.80
2019-05-29T17:06:24.353Z,1.67
2019-05-29T17:08:55.362Z,1.32
2019-05-29T17:11:25.293Z,1.05
2019-05-29T17:13:55.165Z,2.80
2019-05-29T17:16:25.005Z,2.02
2019-05-29T17:18:54.850Z,1.62
2019-05-29T17:21:25.101Z,3.62
2019-05-29T17:23:54.947Z,2.55
2019-05-29T17:26:26.280Z,3.17
2019-05-29T17:28:56.117Z,3.08
2019-05-29T17:31:25.978Z,2.37
2019-05-29T17:33:56.243Z,2.62
2019-05-29T17:36:28.693Z,3.25
2019-05-29T17:38:57.942Z,2.40
2019-05-29T17:41:27.943Z,2.30
2019-05-29T17:43:58.121Z,2.00
2019-05-29T17:46:27.990Z,1.15
2019-05-29T17:48:57.835Z,1.82
2019-05-29T17:51:28.075Z,1.60
2019-05-29T17:53:57.982Z,2.27
2019-05-29T17:56:36.188Z,1.80
2019-05-29T17:58:59.792Z,1.82
2019-05-29T18:01:31.018Z,1.57
2019-05-29T18:04:01.923Z,2.02
2019-05-29T18:06:32.087Z,1.75
2019-05-29T18:09:02.294Z,2.17
2019-05-29T18:11:33.020Z,2.08
2019-05-29T18:14:07.431Z,1.25
2019-05-29T18:16:34.919Z,1.65
2019-05-29T18:19:04.821Z,2.00
2019-05-29T18:21:35.047Z,1.62
2019-05-29T18:24:05.872Z,1.55
2019-05-29T18:26:46.772Z,1.37
2019-05-29T18:29:07.571Z,1.50
2019-05-29T18:31:38.373Z,1.50
2019-05-29T18:34:08.221Z,1.20
2019-05-29T18:36:38.053Z,1.75
2019-05-29T18:39:08.241Z,1.35
2019-05-29T18:41:38.084Z,0.90
2019-05-29T18:44:07.929Z,1.20
2019-05-29T18:46:38.339Z,1.12
2019-05-29T18:49:08.229Z,1.80
2019-05-29T18:51:38.078Z,1.05
2019-05-29T18:54:08.246Z,1.42
2019-05-29T18:56:38.403Z,1.12
2019-05-29T18:59:08.250Z,1.60
2019-05-29T19:01:38.093Z,1.70
2019-05-29T19:04:07.962Z,1.30
2019-05-29T19:06:38.220Z,1.35
2019-05-29T19:09:08.347Z,1.80
2019-05-29T19:11:38.262Z,1.40
2019-05-29T19:14:08.106Z,1.52
2019-05-29T19:16:39.613Z,1.47
2019-05-29T19:19:09.577Z,1.62
2019-05-29T19:21:39.776Z,1.55
2019-05-29T19:24:09.697Z,1.12
2019-05-29T19:26:39.606Z,1.22
2019-05-29T19:29:10.370Z,1.30
2019-05-29T19:31:42.636Z,1.60
2019-05-29T19:34:12.109Z,1.25
2019-05-29T19:36:41.955Z,1.37
2019-05-29T19:39:11.807Z,1.20
2019-05-29T19:41:41.674Z,1.80
2019-05-29T19:44:11.600Z,1.82
2019-05-29T19:46:53.706Z,3.47
2019-05-29T19:49:13.955Z,2.12
2019-05-29T19:51:43.813Z,1.62
2019-05-29T19:54:13.659Z,1.05
2019-05-29T19:56:43.505Z,1.00
2019-05-29T19:59:13.418Z,1.42
2019-05-29T20:01:43.273Z,1.40
2019-05-29T20:04:13.531Z,1.12
2019-05-29T20:06:43.374Z,2.08
2019-05-29T20:09:13.561Z,1.30
2019-05-29T20:11:43.791Z,1.47
2019-05-29T20:14:13.629Z,1.45
2019-05-29T20:16:43.480Z,1.40
2019-05-29T20:19:13.341Z,1.37
2019-05-29T20:21:43.194Z,1.40
2019-05-29T20:24:13.042Z,1.65
2019-05-29T20:26:43.198Z,1.82
2019-05-29T20:29:13.404Z,1.70
2019-05-29T20:31:43.236Z,1.70
2019-05-29T20:34:13.086Z,1.22
2019-05-29T20:36:42.925Z,2.20
2019-05-29T20:39:12.767Z,2.27
2019-05-29T20:41:43.591Z,1.35
2019-05-29T20:44:13.908Z,1.40
2019-05-29T20:46:43.755Z,1.50
2019-05-29T20:49:13.672Z,1.80
2019-05-29T20:51:43.518Z,2.20
2019-05-29T20:54:13.427Z,1.65
2019-05-29T20:56:43.274Z,2.33
2019-05-29T20:59:13.118Z,2.37
2019-05-29T21:01:46.030Z,2.20
2019-05-29T21:04:14.440Z,2.20
2019-05-29T21:06:44.783Z,2.62
2019-05-29T21:09:14.637Z,2.67
2019-05-29T21:11:44.482Z,2.58
2019-05-29T21:14:14.602Z,2.55
2019-05-29T21:16:44.459Z,2.45
2019-05-29T21:19:14.310Z,2.20
2019-05-29T21:21:44.614Z,2.55
2019-05-29T21:24:14.903Z,2.90
2019-05-29T21:26:45.220Z,2.20
2019-05-29T21:29:15.186Z,2.05
2019-05-29T21:31:45.756Z,2.10
2019-05-29T21:34:15.674Z,2.42
2019-05-29T21:36:46.358Z,1.80
2019-05-29T21:39:16.648Z,2.37
2019-05-29T21:41:46.739Z,1.80
2019-05-29T21:44:16.398Z,2.15
2019-05-29T21:46:47.222Z,1.72
2019-05-29T21:49:17.190Z,2.55
2019-05-29T21:51:47.942Z,2.80
2019-05-29T21:54:17.893Z,1.77
2019-05-29T21:56:47.954Z,2.50
2019-05-29T21:59:19.100Z,2.17
2019-05-29T22:01:48.947Z,2.25
2019-05-29T22:04:18.790Z,2.98
2019-05-29T22:06:48.942Z,2.02
2019-05-29T22:09:18.958Z,1.80
2019-05-29T22:11:50.161Z,1.60
2019-05-29T22:14:20.119Z,2.22
2019-05-29T22:16:50.893Z,2.17
2019-05-29T22:19:21.119Z,2.22
2019-05-29T22:21:51.438Z,2.17
2019-05-29T22:24:21.296Z,3.00
2019-05-29T22:26:51.226Z,2.17
2019-05-29T22:29:22.049Z,2.92
2019-05-29T22:31:53.354Z,2.10
2019-05-29T22:34:23.679Z,2.12
2019-05-29T22:36:53.549Z,2.70
2019-05-29T22:39:23.708Z,2.25
2019-05-29T22:41:53.869Z,2.27
2019-05-29T22:44:23.905Z,2.15
2019-05-29T22:46:53.807Z,2.80
2019-05-29T22:49:23.704Z,1.87
2019-05-29T22:51:53.679Z,2.30
2019-05-29T22:54:23.593Z,2.35
2019-05-29T22:56:53.981Z,2.33
2019-05-29T22:59:31.968Z,2.98
2019-05-29T23:01:56.390Z,1.90
2019-05-29T23:04:26.303Z,2.22
2019-05-29T23:06:56.331Z,2.72
2019-05-29T23:09:26.287Z,2.27
2019-05-29T23:11:56.296Z,2.42
2019-05-29T23:14:26.173Z,2.52
2019-05-29T23:16:56.429Z,2.40
2019-05-29T23:19:26.762Z,2.80
2019-05-29T23:21:56.601Z,2.75
2019-05-29T23:24:26.791Z,2.95
2019-05-29T23:26:57.006Z,2.37
2019-05-29T23:29:27.228Z,2.65
2019-05-29T23:31:58.897Z,2.87
2019-05-29T23:34:28.827Z,2.20
2019-05-29T23:36:59.184Z,2.60
2019-05-29T23:39:29.068Z,2.92
2019-05-29T23:41:59.425Z,3.17
2019-05-29T23:44:29.627Z,3.95
2019-05-29T23:47:01.636Z,3.40
2019-05-29T23:49:31.693Z,3.60
2019-05-29T23:52:02.905Z,3.50
2019-05-29T23:54:33.017Z,4.00
2019-05-29T23:57:04.055Z,4.45
2019-05-29T23:59:34.399Z,3.87
